Time;durP1;ratioP1;P1;durP2;ratioP2;P2;SDS_P1;SDS_P2;PMS_P1;PMS_P2;Temp;Humidity;BMP_temperature;BMP_pressure;BME280_temperature;BME280_humidity;BME280_pressure;Samples;Min_cycle;Max_cycle;Signal;HPM_P1;HPM_P2
2024/01/31 00:00:33;;;;;;;4.17;1.30;;;6.30;99.90;;;;;;5028477;28;20203;-48
2024/01/31 00:03:00;;;;;;;3.43;1.40;;;6.30;99.90;;;;;;5039493;28;20241;-51
2024/01/31 00:05:26;;;;;;;5.63;1.30;;;6.30;99.90;;;;;;5037759;28;20179;-50
2024/01/31 00:07:53;;;;;;;9.40;1.73;;;6.30;99.90;;;;;;5041011;28;20677;-48
2024/01/31 00:10:21;;;;;;;7.60;1.60;;;6.30;99.90;;;;;;4996920;28;23781;-52
2024/01/31 00:12:48;;;;;;;7.37;2.60;;;6.20;99.90;;;;;;5040765;28;20282;-50
2024/01/31 00:15:16;;;;;;;9.30;2.27;;;6.20;99.90;;;;;;5029467;28;20240;-54
2024/01/31 00:17:43;;;;;;;4.80;2.00;;;6.20;99.90;;;;;;5034337;28;20199;-48
2024/01/31 00:20:11;;;;;;;7.67;1.90;;;6.10;99.90;;;;;;5033918;28;20249;-52
2024/01/31 00:22:38;;;;;;;6.17;2.27;;;6.10;99.90;;;;;;5032151;28;20826;-50
2024/01/31 00:25:06;;;;;;;6.83;1.50;;;6.10;99.90;;;;;;5011812;28;21214;-53
2024/01/31 00:27:34;;;;;;;3.57;1.80;;;6.10;99.90;;;;;;5028431;28;20187;-49
2024/01/31 00:30:01;;;;;;;6.07;1.50;;;6.10;99.90;;;;;;5034632;28;20204;-54
2024/01/31 00:32:28;;;;;;;5.90;1.67;;;6.00;99.90;;;;;;5029809;28;21005;-49
2024/01/31 00:34:55;;;;;;;8.27;2.13;;;6.00;99.90;;;;;;5035767;28;20239;-47
2024/01/31 00:37:21;;;;;;;7.83;1.93;;;6.00;99.90;;;;;;5036682;28;20195;-49
2024/01/31 00:39:48;;;;;;;7.80;2.07;;;6.00;99.90;;;;;;5036938;28;20586;-49
2024/01/31 00:42:15;;;;;;;6.43;2.10;;;6.00;99.90;;;;;;4998582;28;20219;-52
2024/01/31 00:44:43;;;;;;;7.70;2.03;;;6.00;99.90;;;;;;5037578;28;20271;-46
2024/01/31 00:47:10;;;;;;;10.57;2.27;;;6.00;99.90;;;;;;5038664;28;20273;-48
2024/01/31 00:49:37;;;;;;;6.63;2.20;;;6.00;99.90;;;;;;5036772;28;20238;-48
2024/01/31 00:52:05;;;;;;;8.60;2.30;;;6.00;99.90;;;;;;5030380;28;20333;-52
2024/01/31 00:54:32;;;;;;;9.07;1.43;;;5.90;99.90;;;;;;5033320;28;20869;-48
2024/01/31 00:56:58;;;;;;;6.83;1.30;;;5.90;99.90;;;;;;5008088;28;20235;-48
2024/01/31 00:59:25;;;;;;;3.80;1.30;;;5.90;99.90;;;;;;5020361;28;20265;-51
2024/01/31 01:01:54;;;;;;;5.93;1.00;;;5.80;99.90;;;;;;5043697;28;20223;-51
2024/01/31 01:04:20;;;;;;;4.73;1.23;;;5.80;99.90;;;;;;5037851;28;20941;-51
2024/01/31 01:06:47;;;;;;;3.17;1.03;;;5.80;99.90;;;;;;5032388;28;20195;-54
2024/01/31 01:09:14;;;;;;;4.73;0.93;;;5.80;99.90;;;;;;5035139;28;20203;-52
2024/01/31 01:11:41;;;;;;;4.80;0.87;;;5.80;99.90;;;;;;5006616;28;20223;-54
2024/01/31 01:14:07;;;;;;;6.00;0.80;;;5.70;99.90;;;;;;5022511;28;20300;-48
2024/01/31 01:16:34;;;;;;;6.10;0.80;;;5.70;99.90;;;;;;5020968;28;20246;-47
2024/01/31 01:19:04;;;;;;;6.07;1.10;;;5.70;99.90;;;;;;5029627;28;20196;-47
2024/01/31 01:21:33;;;;;;;3.67;1.50;;;5.70;99.90;;;;;;5029350;28;20218;-47
2024/01/31 01:24:00;;;;;;;3.10;0.70;;;5.70;99.90;;;;;;5020614;28;20628;-48
2024/01/31 01:26:27;;;;;;;5.73;0.90;;;5.70;99.90;;;;;;5003305;28;20293;-48
2024/01/31 01:28:54;;;;;;;3.90;0.90;;;5.70;99.90;;;;;;5023462;28;20265;-48
2024/01/31 01:31:21;;;;;;;5.80;1.07;;;5.70;99.90;;;;;;5030458;28;20607;-52
2024/01/31 01:33:48;;;;;;;2.50;1.00;;;5.70;99.90;;;;;;5042250;28;20195;-53
2024/01/31 01:36:17;;;;;;;4.17;0.80;;;5.70;99.90;;;;;;5037115;28;20237;-52
2024/01/31 01:38:43;;;;;;;3.23;0.87;;;5.70;99.90;;;;;;5035015;28;20208;-48
2024/01/31 01:41:10;;;;;;;6.37;1.27;;;5.70;99.90;;;;;;5023445;28;20285;-51
2024/01/31 01:43:37;;;;;;;1.63;0.70;;;5.70;99.90;;;;;;5030468;28;20192;-50
2024/01/31 01:46:11;;;;;;;1.97;0.90;;;5.70;99.90;;;;;;5034067;28;20207;-48
2024/01/31 01:48:38;;;;;;;5.30;0.90;;;5.70;99.90;;;;;;5033817;28;21002;-49
2024/01/31 01:51:05;;;;;;;3.83;0.67;;;5.70;99.90;;;;;;5036244;28;20227;-50
2024/01/31 01:53:36;;;;;;;2.97;0.77;;;5.70;99.90;;;;;;5030369;28;20204;-47
2024/01/31 01:56:05;;;;;;;1.90;0.40;;;5.70;99.90;;;;;;5035521;28;20212;-48
2024/01/31 01:58:33;;;;;;;0.50;0.30;;;5.60;99.90;;;;;;5016317;28;20194;-47
2024/01/31 02:01:01;;;;;;;1.87;0.50;;;5.60;99.90;;;;;;5037925;28;20208;-51
2024/01/31 02:03:29;;;;;;;5.50;0.93;;;5.60;99.90;;;;;;5034399;28;20222;-50
2024/01/31 02:05:57;;;;;;;4.40;0.93;;;5.60;99.90;;;;;;5034827;28;20521;-47
2024/01/31 02:08:24;;;;;;;6.00;0.73;;;5.60;99.90;;;;;;5034546;28;20200;-52
2024/01/31 02:10:53;;;;;;;4.67;0.70;;;5.50;99.90;;;;;;5030011;28;20257;-51
2024/01/31 02:13:19;;;;;;;2.70;0.80;;;5.60;99.90;;;;;;5008517;28;20239;-53
2024/01/31 02:15:52;;;;;;;2.43;0.60;;;5.50;99.90;;;;;;5023962;28;20797;-48
2024/01/31 02:18:19;;;;;;;2.60;0.50;;;5.50;99.90;;;;;;5045604;28;20200;-49
2024/01/31 02:20:45;;;;;;;3.80;0.70;;;5.50;99.90;;;;;;5045621;28;20676;-52
2024/01/31 02:23:15;;;;;;;1.87;0.70;;;5.40;99.90;;;;;;5039812;28;20207;-52
2024/01/31 02:25:41;;;;;;;0.90;0.60;;;5.30;99.90;;;;;;5038909;28;20179;-50
2024/01/31 02:28:09;;;;;;;1.63;0.50;;;5.30;99.90;;;;;;5019830;28;20289;-52
2024/01/31 02:30:35;;;;;;;3.77;0.97;;;5.30;99.90;;;;;;5031510;28;20218;-49
2024/01/31 02:33:02;;;;;;;4.47;0.90;;;5.30;99.90;;;;;;5041008;28;20215;-49
2024/01/31 02:35:31;;;;;;;1.60;0.60;;;5.30;99.90;;;;;;5035745;28;20273;-47
2024/01/31 02:37:58;;;;;;;4.10;0.80;;;5.30;99.90;;;;;;5040894;28;20204;-50
2024/01/31 02:40:26;;;;;;;4.90;0.63;;;5.30;99.90;;;;;;5026261;28;20219;-49
2024/01/31 02:42:53;;;;;;;3.67;0.70;;;5.20;99.90;;;;;;5037452;28;20226;-49
2024/01/31 02:45:19;;;;;;;2.80;0.70;;;5.20;99.90;;;;;;5002870;28;20257;-48
2024/01/31 02:47:46;;;;;;;2.63;0.60;;;5.20;99.90;;;;;;5030384;28;20216;-51
2024/01/31 02:50:13;;;;;;;5.43;0.50;;;5.20;99.90;;;;;;5025439;28;20195;-51
2024/01/31 02:52:39;;;;;;;5.43;1.10;;;5.20;99.90;;;;;;5037041;28;20207;-46
2024/01/31 02:55:07;;;;;;;5.67;0.97;;;5.10;99.90;;;;;;5033268;28;20281;-52
2024/01/31 02:57:36;;;;;;;2.50;1.10;;;5.20;99.90;;;;;;5023386;28;20221;-47
2024/01/31 03:00:04;;;;;;;2.57;1.37;;;5.10;99.90;;;;;;5009798;28;20206;-53
2024/01/31 03:02:30;;;;;;;1.93;1.10;;;5.10;99.90;;;;;;5028279;28;20223;-50
2024/01/31 03:04:57;;;;;;;4.53;1.47;;;5.20;99.90;;;;;;5044277;28;20196;-51
2024/01/31 03:07:24;;;;;;;2.73;0.97;;;5.20;99.90;;;;;;5037216;28;20753;-47
2024/01/31 03:09:51;;;;;;;2.47;1.20;;;5.10;99.90;;;;;;5041499;28;20199;-53
2024/01/31 03:12:17;;;;;;;4.80;0.90;;;5.10;99.90;;;;;;5031738;28;20994;-49
2024/01/31 03:14:46;;;;;;;5.63;0.83;;;5.10;99.90;;;;;;5042900;28;20293;-46
2024/01/31 03:17:12;;;;;;;4.43;0.80;;;5.10;99.90;;;;;;5008578;28;20200;-46
2024/01/31 03:19:40;;;;;;;4.50;1.27;;;5.00;99.90;;;;;;5030323;28;20200;-47
2024/01/31 03:22:08;;;;;;;5.07;0.90;;;5.10;99.90;;;;;;5036476;28;20215;-52
2024/01/31 03:24:36;;;;;;;10.60;1.40;;;5.10;99.90;;;;;;5039650;28;20199;-51
2024/01/31 03:27:03;;;;;;;3.57;0.67;;;5.00;99.90;;;;;;5035824;28;20210;-53
2024/01/31 03:29:30;;;;;;;5.80;1.10;;;5.00;99.90;;;;;;5033985;28;20221;-50
2024/01/31 03:31:58;;;;;;;6.70;1.20;;;4.90;99.90;;;;;;5021919;28;20246;-53
2024/01/31 03:34:25;;;;;;;4.50;1.27;;;4.90;99.90;;;;;;5028017;28;20203;-47
2024/01/31 03:36:52;;;;;;;8.67;1.23;;;4.90;99.90;;;;;;5035395;28;20570;-50
2024/01/31 03:39:19;;;;;;;2.87;0.93;;;4.90;99.90;;;;;;5038000;28;20254;-49
2024/01/31 03:41:49;;;;;;;8.07;1.13;;;5.00;99.90;;;;;;5037996;28;20302;-47
2024/01/31 03:44:15;;;;;;;4.33;1.20;;;5.00;99.90;;;;;;5027182;28;20207;-47
2024/01/31 03:46:43;;;;;;;9.20;1.50;;;5.00;99.90;;;;;;5010820;28;20739;-48
2024/01/31 03:49:11;;;;;;;4.70;1.30;;;5.00;99.90;;;;;;5030666;28;20203;-52
2024/01/31 03:51:37;;;;;;;11.20;1.83;;;5.00;99.90;;;;;;5021541;28;20219;-49
2024/01/31 03:54:05;;;;;;;5.97;1.20;;;5.00;99.90;;;;;;5033913;28;20208;-53
2024/01/31 03:56:31;;;;;;;4.10;1.10;;;5.10;99.90;;;;;;5034381;28;20765;-51
2024/01/31 03:58:58;;;;;;;5.03;1.10;;;5.10;99.90;;;;;;5024138;28;20210;-53
2024/01/31 04:01:25;;;;;;;6.73;1.10;;;5.10;99.90;;;;;;5006967;28;20965;-48
2024/01/31 04:03:52;;;;;;;4.80;2.43;;;5.00;99.90;;;;;;5032809;28;20199;-52
2024/01/31 04:06:20;;;;;;;6.67;1.17;;;5.00;99.90;;;;;;5020122;28;20191;-47
2024/01/31 04:08:47;;;;;;;8.53;1.70;;;5.00;99.90;;;;;;5033584;28;20290;-47
2024/01/31 04:11:14;;;;;;;5.93;1.23;;;5.00;99.90;;;;;;5029644;28;20227;-48
2024/01/31 04:13:44;;;;;;;3.47;0.90;;;5.00;99.90;;;;;;5033820;28;20208;-48
2024/01/31 04:16:15;;;;;;;7.87;1.20;;;4.90;99.90;;;;;;5029092;28;20759;-51
2024/01/31 04:18:42;;;;;;;8.50;1.50;;;5.00;99.90;;;;;;5013690;28;20211;-50
2024/01/31 04:21:09;;;;;;;6.33;1.27;;;4.90;99.90;;;;;;5036718;28;20219;-53
2024/01/31 04:23:37;;;;;;;7.93;1.00;;;5.00;99.90;;;;;;5021782;28;20200;-50
2024/01/31 04:26:04;;;;;;;7.10;1.40;;;4.90;99.90;;;;;;5039415;28;20205;-51
2024/01/31 04:28:31;;;;;;;3.37;1.07;;;4.90;99.90;;;;;;5040179;28;20238;-49
2024/01/31 04:30:58;;;;;;;10.03;1.83;;;4.90;99.90;;;;;;5027966;28;20200;-49
2024/01/31 04:33:25;;;;;;;9.33;1.70;;;4.90;99.90;;;;;;5004821;28;20213;-50
2024/01/31 04:35:52;;;;;;;5.90;1.40;;;4.90;99.90;;;;;;5032918;28;20219;-49
2024/01/31 04:38:19;;;;;;;6.00;1.27;;;5.00;99.90;;;;;;5021399;28;20197;-49
2024/01/31 04:40:47;;;;;;;7.37;1.23;;;4.90;99.90;;;;;;5028473;28;20191;-53
2024/01/31 04:43:16;;;;;;;10.37;1.30;;;5.00;99.90;;;;;;5026996;28;20249;-53
2024/01/31 04:45:44;;;;;;;9.37;1.73;;;4.90;99.90;;;;;;5023017;28;20570;-49
2024/01/31 04:48:11;;;;;;;6.00;1.00;;;5.00;99.90;;;;;;5001739;28;20211;-53
2024/01/31 04:50:37;;;;;;;8.20;1.20;;;5.00;99.90;;;;;;5030734;28;20322;-48
2024/01/31 04:53:04;;;;;;;9.73;1.77;;;5.00;99.90;;;;;;5025071;28;21039;-51
2024/01/31 04:55:31;;;;;;;11.73;1.47;;;5.00;99.90;;;;;;5023332;28;20300;-53
2024/01/31 04:58:00;;;;;;;5.87;1.10;;;5.00;99.90;;;;;;5024779;28;20225;-47
2024/01/31 05:00:28;;;;;;;2.50;0.90;;;5.00;99.90;;;;;;5032137;28;20204;-47
2024/01/31 05:02:54;;;;;;;3.03;1.10;;;5.00;99.90;;;;;;5018961;28;20307;-47
2024/01/31 05:05:21;;;;;;;4.23;1.00;;;5.10;99.90;;;;;;5007273;28;20211;-50
2024/01/31 05:07:48;;;;;;;5.13;1.30;;;5.00;99.90;;;;;;5034552;28;20264;-51
2024/01/31 05:10:15;;;;;;;8.60;1.53;;;5.00;99.90;;;;;;5024872;28;20733;-48
2024/01/31 05:12:42;;;;;;;7.27;1.07;;;5.00;99.90;;;;;;5031431;28;20397;-51
2024/01/31 05:15:10;;;;;;;8.47;1.63;;;5.00;99.90;;;;;;5040968;28;20211;-49
2024/01/31 05:17:37;;;;;;;6.50;1.30;;;5.10;99.90;;;;;;5029169;28;20210;-52
2024/01/31 05:20:05;;;;;;;3.93;1.63;;;5.10;99.90;;;;;;5011001;28;20203;-49
2024/01/31 05:22:32;;;;;;;7.77;1.40;;;5.10;99.90;;;;;;5029184;28;20220;-52
2024/01/31 05:24:58;;;;;;;2.93;0.80;;;5.10;99.90;;;;;;5021017;28;20199;-51
2024/01/31 05:27:26;;;;;;;3.80;1.50;;;5.10;99.90;;;;;;5034289;28;20764;-47
2024/01/31 05:29:53;;;;;;;8.20;1.23;;;5.10;99.90;;;;;;5018316;28;20260;-46
2024/01/31 05:32:21;;;;;;;7.53;1.40;;;5.10;99.90;;;;;;5017181;28;20227;-53
2024/01/31 05:34:48;;;;;;;6.07;1.80;;;5.10;99.90;;;;;;5032955;28;20188;-48
2024/01/31 05:37:15;;;;;;;8.13;1.60;;;5.20;99.90;;;;;;5004094;28;20218;-52
2024/01/31 05:39:42;;;;;;;4.90;0.90;;;5.20;99.90;;;;;;5018663;28;20342;-48
2024/01/31 05:42:09;;;;;;;4.83;1.67;;;5.20;99.90;;;;;;5035295;28;20277;-51
2024/01/31 05:44:35;;;;;;;5.50;1.03;;;5.20;99.90;;;;;;5028849;28;20199;-47
2024/01/31 05:47:03;;;;;;;4.63;1.17;;;5.20;99.90;;;;;;5037857;28;20893;-47
2024/01/31 05:49:31;;;;;;;7.23;1.20;;;5.10;99.90;;;;;;5026286;28;20856;-51
2024/01/31 05:51:58;;;;;;;3.20;0.90;;;5.20;99.90;;;;;;5009262;28;20211;-48
2024/01/31 05:54:24;;;;;;;4.83;1.00;;;5.10;99.90;;;;;;5025744;28;20217;-50
2024/01/31 05:56:52;;;;;;;5.70;1.30;;;5.20;99.90;;;;;;5037405;28;20645;-46
2024/01/31 05:59:19;;;;;;;6.13;1.17;;;5.10;99.90;;;;;;5037105;28;20219;-49
2024/01/31 06:01:45;;;;;;;8.43;1.20;;;5.20;99.90;;;;;;5042492;28;20297;-52
2024/01/31 06:04:12;;;;;;;9.77;1.33;;;5.20;99.90;;;;;;5029419;28;20214;-52
2024/01/31 06:06:40;;;;;;;7.80;1.57;;;5.20;99.90;;;;;;5000342;28;20516;-49
2024/01/31 06:09:07;;;;;;;3.13;1.27;;;5.20;99.90;;;;;;5034141;28;20649;-51
2024/01/31 06:11:34;;;;;;;5.97;1.20;;;5.20;99.90;;;;;;5019262;28;20219;-47
2024/01/31 06:14:01;;;;;;;4.23;1.00;;;5.20;99.90;;;;;;5039920;28;20651;-46
2024/01/31 06:16:29;;;;;;;5.07;0.90;;;5.20;99.90;;;;;;5028221;28;20222;-49
2024/01/31 06:18:56;;;;;;;5.27;0.87;;;5.20;99.90;;;;;;5040719;28;20199;-49
2024/01/31 06:21:22;;;;;;;6.00;1.63;;;5.20;99.90;;;;;;5017446;28;20223;-52
2024/01/31 06:23:51;;;;;;;3.40;0.93;;;5.20;99.90;;;;;;5034609;28;20221;-50
2024/01/31 06:26:18;;;;;;;8.63;1.20;;;5.20;99.90;;;;;;5032186;28;20199;-53
2024/01/31 06:28:48;;;;;;;8.47;2.57;;;5.20;99.90;;;;;;5045747;28;20198;-47
2024/01/31 06:31:24;;;;;;;7.17;1.47;;;5.20;99.90;;;;;;5041394;28;20229;-48
2024/01/31 06:33:51;;;;;;;4.23;0.90;;;5.20;99.90;;;;;;5038009;28;20255;-47
2024/01/31 06:36:18;;;;;;;4.43;0.80;;;5.20;99.90;;;;;;5024557;28;20239;-48
2024/01/31 06:38:45;;;;;;;7.83;1.17;;;5.20;99.90;;;;;;5020972;28;20211;-49
2024/01/31 06:41:14;;;;;;;4.27;1.03;;;5.30;99.90;;;;;;5026270;28;20280;-48
2024/01/31 06:43:41;;;;;;;6.53;0.90;;;5.30;99.90;;;;;;5051247;28;20207;-53
2024/01/31 06:46:08;;;;;;;5.63;1.27;;;5.30;99.90;;;;;;5038412;28;20322;-49
2024/01/31 06:48:35;;;;;;;4.83;1.50;;;5.30;99.90;;;;;;5040236;28;20207;-49
2024/01/31 06:51:02;;;;;;;10.07;1.20;;;5.30;99.90;;;;;;5030045;28;20212;-47
2024/01/31 06:53:29;;;;;;;7.27;1.43;;;5.30;99.90;;;;;;5010233;28;20283;-51
2024/01/31 06:55:56;;;;;;;8.00;1.57;;;5.30;99.90;;;;;;5040799;28;20296;-48
2024/01/31 06:58:24;;;;;;;5.27;1.20;;;5.30;99.90;;;;;;5029529;28;20203;-49
2024/01/31 07:00:54;;;;;;;4.50;1.00;;;5.30;99.90;;;;;;5026528;28;20275;-46
2024/01/31 07:03:21;;;;;;;3.27;1.17;;;5.30;99.90;;;;;;5023343;28;20211;-49
2024/01/31 07:05:48;;;;;;;5.77;0.97;;;5.30;99.90;;;;;;5023462;28;20207;-50
2024/01/31 07:08:15;;;;;;;5.00;1.43;;;5.40;99.90;;;;;;5004466;28;20204;-48
2024/01/31 07:10:42;;;;;;;2.57;0.90;;;5.30;99.90;;;;;;5029610;28;20683;-47
2024/01/31 07:13:09;;;;;;;5.80;0.80;;;5.40;99.90;;;;;;5014750;28;20483;-49
2024/01/31 07:15:37;;;;;;;7.00;1.60;;;5.40;99.90;;;;;;5032631;28;20192;-48
2024/01/31 07:18:04;;;;;;;5.90;0.90;;;5.40;99.90;;;;;;5025911;28;20192;-47
2024/01/31 07:20:31;;;;;;;5.93;1.10;;;5.40;99.90;;;;;;5027149;28;20227;-49
2024/01/31 07:22:58;;;;;;;2.90;1.07;;;5.40;99.90;;;;;;5010372;28;20220;-51
2024/01/31 07:25:24;;;;;;;9.63;1.03;;;5.40;99.90;;;;;;5021389;28;20200;-47
2024/01/31 07:27:51;;;;;;;6.97;1.33;;;5.40;99.90;;;;;;5020781;28;20278;-51
2024/01/31 07:30:18;;;;;;;6.33;1.23;;;5.40;99.90;;;;;;5027120;28;20199;-47
2024/01/31 07:32:46;;;;;;;5.13;1.30;;;5.40;99.90;;;;;;5035326;28;20265;-49
2024/01/31 07:35:14;;;;;;;6.33;1.03;;;5.40;99.90;;;;;;5024882;28;20281;-47
2024/01/31 07:37:41;;;;;;;8.63;1.53;;;5.40;99.90;;;;;;5032949;28;20701;-47
2024/01/31 07:40:10;;;;;;;6.67;1.33;;;5.40;99.90;;;;;;4997853;28;20213;-46
2024/01/31 07:42:37;;;;;;;9.27;1.37;;;5.40;99.90;;;;;;5034822;28;20226;-46
2024/01/31 07:45:05;;;;;;;4.10;1.10;;;5.40;99.90;;;;;;5021090;28;20214;-51
2024/01/31 07:47:31;;;;;;;4.43;1.00;;;5.50;99.90;;;;;;5043583;28;20206;-51
2024/01/31 07:50:00;;;;;;;6.67;1.30;;;5.50;99.90;;;;;;5034451;28;20214;-50
2024/01/31 07:52:26;;;;;;;12.03;1.50;;;5.40;99.90;;;;;;5029628;28;20227;-46
2024/01/31 07:54:53;;;;;;;3.67;1.20;;;5.50;99.90;;;;;;5005126;28;20839;-51
2024/01/31 07:57:20;;;;;;;5.13;1.43;;;5.50;99.90;;;;;;5037944;28;20917;-51
2024/01/31 07:59:48;;;;;;;9.17;1.57;;;5.50;99.90;;;;;;5020667;28;20225;-50
2024/01/31 08:02:15;;;;;;;9.00;1.37;;;5.50;99.90;;;;;;5029073;28;20207;-46
2024/01/31 08:04:42;;;;;;;6.93;1.27;;;5.50;99.90;;;;;;5032225;28;20199;-52
2024/01/31 08:07:12;;;;;;;8.33;1.40;;;5.50;99.90;;;;;;5021723;28;20210;-46
2024/01/31 08:09:40;;;;;;;8.07;1.40;;;5.60;99.90;;;;;;5034581;28;20200;-47
2024/01/31 08:12:07;;;;;;;7.47;1.20;;;5.60;99.90;;;;;;5007380;28;20240;-47
2024/01/31 08:14:34;;;;;;;6.00;1.13;;;5.60;99.90;;;;;;5036618;28;20214;-48
2024/01/31 08:17:01;;;;;;;4.60;1.30;;;5.60;99.90;;;;;;5032140;28;20266;-48
2024/01/31 08:19:28;;;;;;;7.50;2.20;;;5.60;99.90;;;;;;5032459;28;20204;-47
2024/01/31 08:21:55;;;;;;;4.43;1.57;;;5.60;99.90;;;;;;5029428;28;20228;-49
2024/01/31 08:24:23;;;;;;;6.50;1.40;;;5.60;99.90;;;;;;5032892;28;20261;-48
2024/01/31 08:26:51;;;;;;;6.03;1.67;;;5.70;99.90;;;;;;5011924;28;20253;-52
2024/01/31 08:29:17;;;;;;;3.77;0.90;;;5.70;99.90;;;;;;5023236;28;20199;-46
2024/01/31 08:31:44;;;;;;;2.47;1.20;;;5.60;99.90;;;;;;5040547;28;20215;-53
2024/01/31 08:34:11;;;;;;;9.87;1.50;;;5.70;99.90;;;;;;5028850;28;20262;-48
2024/01/31 08:36:38;;;;;;;4.17;1.03;;;5.70;99.90;;;;;;5034705;28;20204;-46
2024/01/31 08:39:05;;;;;;;3.83;1.30;;;5.70;99.90;;;;;;5029884;28;20385;-47
2024/01/31 08:41:33;;;;;;;6.97;1.10;;;5.70;99.90;;;;;;5013265;28;20215;-46
2024/01/31 08:43:59;;;;;;;6.27;1.20;;;5.70;99.90;;;;;;5032869;28;20191;-52
2024/01/31 08:46:28;;;;;;;6.47;1.00;;;5.70;99.90;;;;;;5025031;28;20250;-46
2024/01/31 08:48:55;;;;;;;8.03;1.67;;;5.70;99.90;;;;;;5036961;28;20203;-49
2024/01/31 08:51:22;;;;;;;5.47;1.40;;;5.80;99.90;;;;;;5041600;28;20247;-50
2024/01/31 08:53:49;;;;;;;6.17;2.10;;;5.80;99.90;;;;;;5033809;28;20195;-47
2024/01/31 08:56:16;;;;;;;7.87;1.83;;;5.80;99.90;;;;;;5011587;28;20219;-47
2024/01/31 08:58:44;;;;;;;6.03;0.97;;;5.80;99.90;;;;;;5044816;28;20238;-51
2024/01/31 09:01:11;;;;;;;8.07;1.53;;;5.80;99.90;;;;;;5023864;28;20246;-46
2024/01/31 09:03:37;;;;;;;9.57;1.40;;;5.80;99.90;;;;;;5034809;28;20290;-47
2024/01/31 09:06:05;;;;;;;6.13;1.37;;;5.90;99.90;;;;;;5033381;28;20180;-46
2024/01/31 09:08:33;;;;;;;3.20;1.00;;;5.90;99.90;;;;;;5035267;28;20651;-47
2024/01/31 09:10:59;;;;;;;6.93;1.50;;;5.90;99.90;;;;;;5002807;28;20245;-52
2024/01/31 09:13:26;;;;;;;9.03;1.90;;;5.90;99.90;;;;;;5037338;28;20257;-47
2024/01/31 09:15:55;;;;;;;7.17;1.40;;;5.90;99.90;;;;;;5025198;28;20215;-50
2024/01/31 09:18:21;;;;;;;8.67;1.30;;;6.00;99.90;;;;;;5018814;28;20223;-46
2024/01/31 09:20:48;;;;;;;7.80;1.10;;;6.00;99.90;;;;;;5034596;28;20209;-50
2024/01/31 09:23:15;;;;;;;7.00;1.33;;;6.00;99.90;;;;;;5033696;28;20187;-47
2024/01/31 09:25:42;;;;;;;8.00;1.20;;;6.10;99.90;;;;;;5026908;28;20807;-48
2024/01/31 09:28:09;;;;;;;4.17;1.37;;;6.10;99.90;;;;;;5012839;28;20203;-47
2024/01/31 09:30:35;;;;;;;6.37;1.20;;;6.10;99.90;;;;;;5038464;28;20654;-46
2024/01/31 09:33:04;;;;;;;4.30;1.30;;;6.10;99.90;;;;;;5026609;28;20215;-48
2024/01/31 09:35:31;;;;;;;5.20;1.10;;;6.20;99.90;;;;;;5039080;28;20206;-47
2024/01/31 09:37:58;;;;;;;4.70;0.90;;;6.30;99.90;;;;;;5035942;28;20218;-52
2024/01/31 09:40:25;;;;;;;2.77;0.93;;;6.30;99.90;;;;;;5032152;28;20199;-47
2024/01/31 09:42:52;;;;;;;11.40;1.30;;;6.30;99.90;;;;;;5007137;28;20253;-48
2024/01/31 09:45:19;;;;;;;7.97;1.13;;;6.30;99.90;;;;;;5033562;28;20179;-50
2024/01/31 09:47:47;;;;;;;5.00;1.37;;;6.30;99.90;;;;;;5021977;28;20219;-51
2024/01/31 09:50:16;;;;;;;5.27;1.03;;;6.30;99.90;;;;;;5028782;28;20198;-46
2024/01/31 09:52:43;;;;;;;5.93;1.20;;;6.30;99.90;;;;;;5032534;28;20291;-48
2024/01/31 09:55:11;;;;;;;3.40;1.27;;;6.30;99.90;;;;;;5037158;28;20187;-46
2024/01/31 09:57:40;;;;;;;4.17;0.70;;;6.30;99.90;;;;;;5009442;28;20702;-46
2024/01/31 10:00:08;;;;;;;5.77;0.80;;;6.30;99.90;;;;;;5046608;28;20944;-47
2024/01/31 10:02:41;;;;;;;6.70;1.43;;;6.30;99.90;;;;;;5039194;28;20218;-50
2024/01/31 10:05:08;;;;;;;7.87;1.37;;;6.30;99.90;;;;;;5030748;28;20911;-46
2024/01/31 10:07:40;;;;;;;3.07;0.90;;;6.40;99.90;;;;;;5040712;28;20238;-47
2024/01/31 10:10:06;;;;;;;3.17;0.83;;;6.40;99.90;;;;;;5040449;28;20281;-47
2024/01/31 10:12:33;;;;;;;7.60;0.90;;;6.40;99.90;;;;;;5015940;28;20238;-50
2024/01/31 10:15:00;;;;;;;8.13;1.23;;;6.40;99.90;;;;;;5034222;28;20196;-49
2024/01/31 10:17:27;;;;;;;5.27;1.07;;;6.40;99.90;;;;;;5044324;28;20619;-46
2024/01/31 10:19:54;;;;;;;4.80;1.00;;;6.40;99.90;;;;;;5028834;28;20363;-50
2024/01/31 10:22:22;;;;;;;6.70;1.20;;;6.40;99.90;;;;;;5042829;28;20550;-47
2024/01/31 10:24:51;;;;;;;5.53;1.10;;;6.40;99.90;;;;;;5038424;28;20199;-52
2024/01/31 10:27:20;;;;;;;5.93;1.23;;;6.30;99.90;;;;;;5013895;28;20931;-48
2024/01/31 10:29:47;;;;;;;4.57;1.10;;;6.30;99.90;;;;;;5040527;28;20218;-51
2024/01/31 10:32:16;;;;;;;4.83;1.20;;;6.30;99.90;;;;;;5039926;28;20305;-46
2024/01/31 10:34:43;;;;;;;16.03;2.40;;;6.30;99.90;;;;;;5030234;28;20207;-50
2024/01/31 10:37:11;;;;;;;5.90;0.97;;;6.40;99.90;;;;;;5030163;28;20564;-47
2024/01/31 10:39:39;;;;;;;5.70;0.90;;;6.30;99.90;;;;;;5024562;28;20653;-47
2024/01/31 10:42:09;;;;;;;5.33;1.10;;;6.30;99.90;;;;;;5031082;28;20227;-48
2024/01/31 10:44:37;;;;;;;6.70;1.10;;;6.40;99.90;;;;;;5017918;28;20728;-49
2024/01/31 10:47:05;;;;;;;4.53;0.77;;;6.40;99.90;;;;;;5034493;28;20805;-46
2024/01/31 10:49:31;;;;;;;3.97;0.93;;;6.50;99.90;;;;;;5034252;28;20319;-52
2024/01/31 10:52:01;;;;;;;8.97;1.10;;;6.40;99.90;;;;;;5029355;28;20208;-47
2024/01/31 10:54:32;;;;;;;6.33;1.03;;;6.40;99.90;;;;;;5036021;28;20668;-48
2024/01/31 10:57:00;;;;;;;6.33;1.47;;;6.40;99.90;;;;;;5035702;28;20188;-47
2024/01/31 10:59:34;;;;;;;6.13;1.20;;;6.40;99.90;;;;;;5013329;28;20211;-51
2024/01/31 11:02:00;;;;;;;4.80;1.13;;;6.40;99.90;;;;;;5039313;28;20440;-48
2024/01/31 11:04:28;;;;;;;2.83;0.87;;;6.50;99.90;;;;;;5040545;28;20253;-51
2024/01/31 11:06:59;;;;;;;7.10;0.93;;;6.40;99.90;;;;;;5035670;28;20194;-47
2024/01/31 11:09:26;;;;;;;4.63;0.97;;;6.40;99.90;;;;;;5040858;28;20553;-50
2024/01/31 11:12:04;;;;;;;5.50;1.23;;;6.40;99.90;;;;;;5035353;28;20239;-47
2024/01/31 11:14:34;;;;;;;3.80;0.97;;;6.30;99.90;;;;;;5016380;28;20205;-51
2024/01/31 11:17:08;;;;;;;3.90;0.83;;;6.30;99.90;;;;;;5038495;28;20890;-46
2024/01/31 11:19:38;;;;;;;4.23;1.10;;;6.30;99.90;;;;;;5039778;28;20214;-53
2024/01/31 11:22:06;;;;;;;6.00;0.73;;;6.20;99.90;;;;;;5031221;28;20219;-50
2024/01/31 11:24:33;;;;;;;2.13;0.70;;;6.30;99.90;;;;;;5041225;28;20280;-48
2024/01/31 11:27:01;;;;;;;3.13;0.77;;;6.30;99.90;;;;;;5039852;28;20857;-46
2024/01/31 11:29:29;;;;;;;2.20;0.80;;;6.30;99.90;;;;;;5015415;28;20200;-51
2024/01/31 11:31:58;;;;;;;5.07;0.80;;;6.20;99.90;;;;;;5040604;28;20212;-47
2024/01/31 11:34:26;;;;;;;3.63;0.90;;;6.20;99.90;;;;;;5042005;28;20223;-47
2024/01/31 11:36:52;;;;;;;6.07;1.17;;;6.20;99.90;;;;;;5029666;28;20295;-48
2024/01/31 11:39:19;;;;;;;1.47;0.57;;;6.20;99.90;;;;;;5040650;28;20735;-48
2024/01/31 11:41:46;;;;;;;3.43;0.70;;;6.10;99.90;;;;;;5030323;28;20223;-46
2024/01/31 11:44:14;;;;;;;2.23;0.77;;;6.00;99.90;;;;;;5015188;28;20261;-46
2024/01/31 11:46:41;;;;;;;2.10;0.47;;;6.00;99.90;;;;;;5004704;28;20294;-49
2024/01/31 11:49:09;;;;;;;7.13;1.27;;;5.90;99.90;;;;;;5036256;28;20278;-48
2024/01/31 11:51:36;;;;;;;1.43;1.07;;;5.90;99.90;;;;;;5036221;28;20215;-52
2024/01/31 11:54:02;;;;;;;3.90;1.13;;;5.90;99.90;;;;;;5024783;28;20195;-47
2024/01/31 11:56:30;;;;;;;1.37;0.70;;;5.90;99.90;;;;;;5037004;28;20283;-53
2024/01/31 11:58:57;;;;;;;4.60;0.60;;;6.00;99.90;;;;;;5032984;28;20991;-49
2024/01/31 12:01:25;;;;;;;3.33;0.80;;;5.90;99.90;;;;;;5006214;28;20229;-48
2024/01/31 12:03:52;;;;;;;1.87;0.70;;;5.90;99.90;;;;;;5031500;28;20300;-47
2024/01/31 12:06:20;;;;;;;2.33;0.80;;;5.90;99.90;;;;;;5034034;28;20192;-47
2024/01/31 12:08:47;;;;;;;4.30;1.13;;;5.90;99.90;;;;;;5019931;28;20429;-50
2024/01/31 12:11:15;;;;;;;2.93;0.80;;;5.90;99.90;;;;;;5035383;28;20235;-47
2024/01/31 12:13:42;;;;;;;3.47;0.63;;;5.90;99.90;;;;;;5028399;28;20271;-49
2024/01/31 12:16:11;;;;;;;3.63;0.87;;;5.90;99.90;;;;;;5010828;28;20265;-48
2024/01/31 12:18:39;;;;;;;1.80;0.60;;;5.90;99.90;;;;;;5031072;28;20220;-52
2024/01/31 12:21:10;;;;;;;4.10;0.90;;;5.80;99.90;;;;;;5030908;28;20311;-50
2024/01/31 12:23:38;;;;;;;3.57;0.73;;;5.80;99.90;;;;;;5024403;28;20192;-47
2024/01/31 12:26:05;;;;;;;2.87;0.80;;;5.80;99.90;;;;;;5033112;28;20254;-47
2024/01/31 12:28:32;;;;;;;2.60;0.80;;;5.80;99.90;;;;;;5031217;28;20219;-50
2024/01/31 12:30:59;;;;;;;1.43;0.70;;;5.80;99.90;;;;;;5005534;28;20234;-48
2024/01/31 12:33:25;;;;;;;3.13;1.20;;;5.80;99.90;;;;;;5039790;28;20196;-48
2024/01/31 12:35:53;;;;;;;2.87;0.57;;;5.80;99.90;;;;;;5032051;28;20202;-49
2024/01/31 12:38:19;;;;;;;2.33;0.70;;;5.70;99.90;;;;;;5033203;28;20277;-50
2024/01/31 12:40:48;;;;;;;0.70;0.70;;;5.70;99.90;;;;;;5017796;28;20537;-47
2024/01/31 12:43:15;;;;;;;5.13;1.20;;;5.70;99.90;;;;;;5034308;28;20199;-50
2024/01/31 12:45:42;;;;;;;3.17;1.43;;;5.70;99.90;;;;;;5040931;28;20549;-49
2024/01/31 12:48:09;;;;;;;1.67;1.53;;;5.70;99.90;;;;;;5010195;28;20214;-53
2024/01/31 12:50:36;;;;;;;1.70;1.60;;;5.70;99.90;;;;;;5041379;28;20195;-47
2024/01/31 12:53:03;;;;;;;2.50;2.30;;;5.70;99.90;;;;;;5037023;28;20225;-50
2024/01/31 12:55:30;;;;;;;3.20;1.90;;;5.70;99.90;;;;;;5022067;28;20204;-49
2024/01/31 12:57:58;;;;;;;2.50;2.00;;;5.70;99.90;;;;;;5037012;28;20281;-51